createdAt,value
2022-08-22T00:01:31.460Z,21.70
2022-08-22T00:02:58.482Z,8.38
2022-08-22T00:03:03.717Z,8.55
2022-08-22T00:03:10.555Z,13.10
2022-08-22T00:04:14.697Z,9.65
2022-08-22T00:07:08.491Z,9.90
2022-08-22T00:09:46.136Z,8.07
2022-08-22T00:12:22.586Z,14.90
2022-08-22T00:14:53.688Z,18.60
2022-08-22T00:17:26.750Z,13.30
2022-08-22T00:20:20.823Z,10.85
2022-08-22T00:22:57.989Z,13.13
2022-08-22T00:26:02.995Z,9.30
2022-08-22T00:28:33.852Z,13.55
2022-08-22T00:31:22.645Z,11.57
2022-08-22T00:34:01.338Z,10.68
2022-08-22T00:36:37.749Z,10.90
2022-08-22T00:39:17.200Z,8.98
2022-08-22T00:41:56.602Z,12.27
2022-08-22T00:44:37.933Z,10.30
2022-08-22T00:47:19.885Z,9.60
2022-08-22T00:50:24.639Z,8.90
2022-08-22T00:53:04.687Z,9.82
2022-08-22T00:55:50.136Z,10.18
2022-08-22T00:58:41.312Z,10.02
2022-08-22T01:01:12.632Z,9.55
2022-08-22T01:04:09.703Z,10.10
2022-08-22T01:07:19.523Z,10.45
2022-08-22T01:10:24.036Z,13.35
2022-08-22T01:13:15.234Z,11.10
2022-08-22T01:15:42.955Z,12.45
2022-08-22T01:18:18.964Z,10.93
2022-08-22T01:20:54.866Z,10.95
2022-08-22T01:23:30.691Z,10.68
2022-08-22T01:26:15.701Z,13.02
2022-08-22T01:28:54.679Z,10.38
2022-08-22T01:31:37.455Z,10.95
2022-08-22T01:34:27.605Z,10.00
2022-08-22T01:37:07.735Z,9.52
2022-08-22T01:39:40.735Z,10.48
2022-08-22T01:42:40.013Z,9.10
2022-08-22T01:45:27.971Z,10.30
2022-08-22T01:48:19.320Z,10.98
2022-08-22T01:50:53.210Z,10.38
2022-08-22T01:53:39.516Z,11.02
2022-08-22T01:56:12.343Z,21.88
2022-08-22T01:58:55.503Z,12.65
2022-08-22T02:01:28.655Z,25.88
2022-08-22T02:04:14.777Z,38.67
2022-08-22T02:07:05.558Z,26.85
2022-08-22T02:09:57.065Z,18.90
2022-08-22T02:12:37.748Z,7.63
2022-08-22T02:15:17.239Z,18.65
2022-08-22T02:17:51.057Z,13.93
2022-08-22T02:20:28.925Z,10.55
2022-08-22T02:23:09.435Z,10.45
2022-08-22T02:26:16.968Z,19.63
2022-08-22T02:28:58.330Z,77.97
2022-08-22T02:31:42.875Z,40.72
2022-08-22T02:34:42.746Z,37.33
2022-08-22T02:37:22.017Z,34.92
2022-08-22T02:40:08.222Z,64.53
2022-08-22T02:42:59.800Z,45.20
2022-08-22T02:45:52.879Z,51.47
2022-08-22T02:48:19.741Z,33.47
2022-08-22T02:51:01.777Z,30.20
2022-08-22T02:53:39.023Z,20.33
2022-08-22T02:56:17.956Z,25.13
2022-08-22T02:59:12.835Z,24.92
2022-08-22T03:01:46.002Z,25.90
2022-08-22T03:04:23.314Z,38.85
2022-08-22T03:07:12.102Z,25.10
2022-08-22T03:09:58.313Z,19.27
2022-08-22T03:12:33.082Z,18.47
2022-08-22T03:15:29.479Z,12.95
2022-08-22T03:18:07.118Z,13.23
2022-08-22T03:20:45.906Z,17.45
2022-08-22T03:23:21.756Z,10.35
2022-08-22T03:26:24.222Z,10.52
2022-08-22T03:29:04.674Z,12.55
2022-08-22T03:31:32.945Z,10.40
2022-08-22T03:34:24.078Z,12.43
2022-08-22T03:37:15.023Z,10.80
2022-08-22T03:39:56.828Z,8.55
2022-08-22T03:42:49.113Z,8.55
2022-08-22T03:45:52.962Z,12.25
2022-08-22T03:48:52.516Z,16.67
2022-08-22T03:51:46.326Z,8.73
2022-08-22T03:54:34.959Z,9.27
2022-08-22T03:57:06.531Z,9.18
2022-08-22T03:59:42.908Z,13.55
2022-08-22T04:02:42.275Z,17.63
2022-08-22T04:05:35.769Z,16.13
2022-08-22T04:08:26.466Z,12.57
2022-08-22T04:11:08.202Z,14.32
2022-08-22T04:13:35.069Z,14.70
2022-08-22T04:16:12.206Z,10.93
2022-08-22T04:18:52.744Z,8.38
2022-08-22T04:21:35.554Z,12.02
2022-08-22T04:24:28.990Z,11.82
2022-08-22T04:27:10.423Z,13.57
2022-08-22T04:29:45.937Z,16.17
2022-08-22T04:32:25.374Z,14.43
2022-08-22T04:35:07.041Z,10.32
2022-08-22T04:37:54.345Z,10.57
2022-08-22T04:40:43.642Z,9.32
2022-08-22T04:43:37.186Z,10.75
2022-08-22T04:46:11.427Z,14.27
2022-08-22T04:48:43.226Z,11.55
2022-08-22T04:51:13.146Z,13.38
2022-08-22T04:53:48.982Z,10.80
2022-08-22T04:56:33.007Z,11.10
2022-08-22T04:59:04.837Z,10.70
2022-08-22T05:01:56.458Z,14.07
2022-08-22T05:04:32.199Z,13.25
2022-08-22T05:07:07.939Z,12.70
2022-08-22T05:09:38.935Z,16.17
2022-08-22T05:12:12.025Z,9.60
2022-08-22T05:14:47.265Z,11.52
2022-08-22T05:17:21.326Z,16.15
2022-08-22T05:19:53.680Z,13.98
2022-08-22T05:22:36.680Z,10.85
2022-08-22T05:25:15.179Z,11.43
2022-08-22T05:27:49.370Z,11.02
2022-08-22T05:30:28.535Z,11.95
2022-08-22T05:33:07.487Z,12.90
2022-08-22T05:35:38.694Z,13.27
2022-08-22T05:38:10.348Z,15.45
2022-08-22T05:40:38.058Z,14.02
2022-08-22T05:43:09.346Z,14.82
2022-08-22T05:45:37.558Z,12.05
2022-08-22T05:48:20.604Z,14.05
2022-08-22T05:50:58.613Z,15.43
2022-08-22T05:53:58.485Z,16.30
2022-08-22T05:56:28.407Z,16.73
2022-08-22T05:59:01.992Z,21.02
2022-08-22T06:01:38.444Z,19.52
2022-08-22T06:04:26.382Z,20.38
2022-08-22T06:07:00.864Z,18.80
2022-08-22T06:09:34.652Z,16.40
2022-08-22T06:12:21.775Z,16.67
2022-08-22T06:14:58.159Z,14.85
2022-08-22T06:17:34.907Z,12.07
2022-08-22T06:20:05.620Z,12.07
2022-08-22T06:22:37.329Z,9.82
2022-08-22T06:25:17.108Z,10.98
2022-08-22T06:27:48.263Z,8.70
2022-08-22T06:30:17.094Z,10.43
2022-08-22T06:33:00.229Z,9.10
2022-08-22T06:35:56.338Z,8.60
2022-08-22T06:38:28.769Z,9.80
2022-08-22T06:40:58.160Z,9.05
2022-08-22T06:43:25.669Z,8.23
2022-08-22T06:45:53.393Z,10.38
2022-08-22T06:48:24.197Z,7.68
2022-08-22T06:50:56.954Z,9.98
2022-08-22T06:53:34.905Z,8.32
2022-08-22T06:56:05.966Z,9.10
2022-08-22T06:58:39.126Z,9.30
2022-08-22T07:01:15.090Z,11.73
2022-08-22T07:03:46.842Z,10.98
2022-08-22T07:06:17.495Z,7.63
2022-08-22T07:08:45.173Z,7.97
2022-08-22T07:11:30.761Z,16.58
2022-08-22T07:14:04.694Z,9.90
2022-08-22T07:16:45.302Z,11.00
2022-08-22T07:19:39.073Z,10.52
2022-08-22T07:22:15.705Z,9.77
2022-08-22T07:24:51.726Z,8.20
2022-08-22T07:27:48.960Z,7.78
2022-08-22T07:30:27.388Z,6.63
2022-08-22T07:33:25.695Z,8.88
2022-08-22T07:35:59.471Z,8.73
2022-08-22T07:38:44.126Z,8.10
2022-08-22T07:41:14.251Z,6.15
2022-08-22T07:43:55.166Z,7.97
2022-08-22T07:46:41.416Z,5.85
2022-08-22T07:49:23.275Z,5.88
2022-08-22T07:51:54.468Z,8.43
2022-08-22T07:54:44.527Z,9.18
2022-08-22T07:57:22.536Z,5.70
2022-08-22T07:59:54.392Z,5.00
2022-08-22T08:02:23.725Z,4.30
2022-08-22T08:04:55.133Z,10.25
2022-08-22T08:07:26.047Z,10.00
2022-08-22T08:09:59.681Z,6.03
2022-08-22T08:12:34.150Z,9.63
2022-08-22T08:15:04.739Z,5.05
2022-08-22T08:17:34.708Z,7.88
2022-08-22T08:20:13.164Z,9.73
2022-08-22T08:22:43.390Z,6.05
2022-08-22T08:25:14.118Z,5.07
2022-08-22T08:28:00.616Z,5.25
2022-08-22T08:30:43.329Z,5.30
2022-08-22T08:33:25.296Z,7.10
2022-08-22T08:36:24.991Z,9.55
2022-08-22T08:39:12.538Z,10.52
2022-08-22T08:42:00.754Z,8.80
2022-08-22T08:44:35.854Z,7.05
2022-08-22T08:47:15.108Z,7.47
2022-08-22T08:50:07.025Z,10.13
2022-08-22T08:52:54.760Z,4.82
2022-08-22T08:55:47.811Z,5.72
2022-08-22T08:58:38.017Z,7.40
2022-08-22T09:01:06.909Z,8.52
2022-08-22T09:03:44.026Z,10.77
2022-08-22T09:06:35.879Z,4.28
2022-08-22T09:09:18.544Z,4.30
2022-08-22T09:11:57.649Z,5.32
2022-08-22T09:14:44.862Z,4.82
2022-08-22T09:17:30.159Z,4.25
2022-08-22T09:20:22.041Z,4.50
2022-08-22T09:23:20.990Z,6.85
2022-08-22T09:26:15.873Z,6.75
2022-08-22T09:28:59.488Z,4.30
2022-08-22T09:31:47.391Z,7.68
2022-08-22T09:34:34.619Z,8.27
2022-08-22T09:37:14.433Z,7.80
2022-08-22T09:43:21.243Z,8.60
2022-08-22T10:17:21.762Z,10.10
2022-08-22T10:19:58.909Z,9.48
2022-08-22T10:22:41.515Z,7.05
2022-08-22T10:25:28.500Z,7.05
2022-08-22T10:28:17.267Z,4.60
2022-08-22T10:31:12.260Z,4.72
2022-08-22T10:34:15.098Z,4.63
2022-08-22T10:36:59.226Z,6.00
2022-08-22T10:39:35.131Z,11.07
2022-08-22T10:42:24.720Z,7.82
2022-08-22T10:45:23.675Z,5.72
2022-08-22T10:48:10.690Z,7.13
2022-08-22T10:50:47.918Z,8.57
2022-08-22T10:53:30.671Z,11.88
2022-08-22T10:56:09.237Z,5.45
2022-08-22T10:59:01.344Z,4.88
2022-08-22T11:01:42.066Z,4.28
2022-08-22T11:04:51.991Z,4.78
2022-08-22T11:07:39.498Z,11.57
2022-08-22T11:10:41.963Z,7.63
2022-08-22T11:13:33.763Z,5.05
2022-08-22T11:16:29.663Z,9.98
2022-08-22T11:19:15.282Z,4.23
2022-08-22T11:21:54.638Z,6.45
2022-08-22T11:24:35.416Z,8.38
2022-08-22T11:27:21.863Z,12.70
2022-08-22T11:30:18.161Z,6.95
2022-08-22T11:33:19.789Z,6.22
2022-08-22T11:35:56.996Z,14.68
2022-08-22T11:38:44.681Z,9.75
2022-08-22T11:41:34.010Z,8.30
2022-08-22T11:44:25.711Z,9.98
2022-08-22T11:46:58.127Z,11.23
2022-08-22T11:49:39.922Z,7.45
2022-08-22T11:52:27.380Z,10.00
2022-08-22T11:55:30.817Z,16.30
2022-08-22T11:58:17.925Z,8.68
2022-08-22T12:01:17.337Z,10.93
2022-08-22T12:04:09.971Z,11.75
2022-08-22T12:07:03.153Z,10.15
2022-08-22T12:09:51.637Z,15.00
2022-08-22T12:12:24.490Z,15.48
2022-08-22T12:15:08.816Z,13.48
2022-08-22T12:17:55.082Z,11.38
2022-08-22T12:20:32.936Z,11.27
2022-08-22T12:23:20.097Z,8.93
2022-08-22T12:26:11.203Z,8.88
2022-08-22T12:29:05.914Z,9.43
2022-08-22T12:32:04.601Z,8.93
2022-08-22T12:34:57.855Z,14.25
2022-08-22T12:38:21.220Z,10.55
2022-08-22T12:41:27.745Z,10.63
2022-08-22T12:44:07.046Z,10.35
2022-08-22T12:47:11.230Z,21.00
2022-08-22T12:50:07.429Z,13.48
2022-08-22T12:53:14.182Z,8.90
2022-08-22T12:56:10.263Z,9.90
2022-08-22T12:58:37.608Z,15.73
2022-08-22T13:01:08.788Z,9.77
2022-08-22T13:03:43.766Z,8.65
2022-08-22T13:06:35.536Z,16.25
2022-08-22T13:09:32.048Z,7.80
2022-08-22T13:12:05.162Z,12.15
2022-08-22T13:14:34.437Z,16.52
2022-08-22T13:17:15.181Z,9.73
2022-08-22T13:19:57.593Z,11.20
2022-08-22T13:22:28.992Z,11.20
2022-08-22T13:25:05.872Z,15.02
2022-08-22T13:27:51.373Z,12.50
2022-08-22T13:30:39.897Z,10.30
2022-08-22T13:33:10.334Z,13.32
2022-08-22T13:35:52.197Z,10.40
2022-08-22T13:38:32.251Z,13.90
2022-08-22T13:41:02.651Z,15.80
2022-08-22T13:43:37.185Z,15.82
2022-08-22T13:46:10.950Z,13.60
2022-08-22T13:48:51.118Z,6.50
2022-08-22T13:51:33.734Z,14.07
2022-08-22T13:54:15.950Z,13.00
2022-08-22T13:57:00.602Z,11.32
2022-08-22T13:59:59.481Z,12.70
2022-08-22T14:02:53.751Z,9.20
2022-08-22T14:05:28.649Z,12.38
2022-08-22T14:07:58.327Z,11.23
2022-08-22T14:10:33.928Z,12.38
2022-08-22T14:13:00.887Z,8.70
2022-08-22T14:15:44.749Z,11.07
2022-08-22T14:18:45.450Z,10.00
2022-08-22T14:21:25.167Z,7.18
2022-08-22T14:23:55.602Z,8.02
2022-08-22T14:26:32.835Z,9.68
2022-08-22T14:31:29.959Z,8.52
2022-08-22T14:34:10.370Z,8.45
2022-08-22T14:37:01.814Z,10.38
2022-08-22T14:39:47.326Z,9.77
2022-08-22T14:42:27.222Z,13.20
2022-08-22T14:45:21.811Z,9.85
2022-08-22T14:48:31.708Z,7.07
2022-08-22T14:51:18.390Z,7.90
2022-08-22T14:53:50.227Z,7.63
2022-08-22T14:56:27.780Z,8.38
2022-08-22T14:59:03.266Z,7.65
2022-08-22T15:01:33.250Z,5.05
2022-08-22T15:04:03.203Z,12.60
2022-08-22T15:06:31.946Z,9.43
2022-08-22T15:09:00.614Z,10.65
2022-08-22T15:11:36.748Z,8.60
2022-08-22T15:14:12.821Z,9.07
2022-08-22T15:16:45.097Z,8.57
2022-08-22T15:19:32.727Z,7.13
2022-08-22T15:22:13.860Z,9.00
2022-08-22T15:24:45.355Z,13.70
2022-08-22T15:27:19.332Z,6.47
2022-08-22T15:29:58.882Z,5.28
2022-08-22T15:32:29.655Z,10.93
2022-08-22T15:35:07.782Z,7.28
2022-08-22T15:38:18.193Z,7.30
2022-08-22T15:40:46.011Z,20.75
2022-08-22T15:43:34.828Z,19.88
2022-08-22T15:46:23.440Z,9.65
2022-08-22T15:49:02.078Z,12.82
2022-08-22T15:51:40.178Z,10.27
2022-08-22T15:54:24.603Z,7.22
2022-08-22T15:56:52.424Z,12.07
2022-08-22T15:59:26.753Z,5.40
2022-08-22T16:02:27.075Z,5.78
2022-08-22T16:05:37.273Z,8.73
2022-08-22T16:08:09.473Z,6.07
2022-08-22T16:11:02.945Z,5.88
2022-08-22T16:13:30.167Z,5.13
2022-08-22T16:16:17.747Z,7.85
2022-08-22T16:18:47.474Z,7.80
2022-08-22T16:21:40.444Z,6.90
2022-08-22T16:24:07.402Z,9.38
2022-08-22T16:26:39.935Z,7.90
2022-08-22T16:31:47.929Z,9.02
2022-08-22T16:37:04.136Z,8.07
2022-08-22T16:39:36.667Z,9.40
2022-08-22T16:42:24.468Z,6.10
2022-08-22T16:45:06.177Z,7.82
2022-08-22T16:47:33.081Z,9.38
2022-08-22T16:50:23.834Z,10.35
2022-08-22T16:53:28.964Z,7.13
2022-08-22T16:56:17.627Z,6.60
2022-08-22T16:59:03.372Z,7.00
2022-08-22T17:01:50.790Z,13.57
2022-08-22T17:04:36.350Z,6.88
2022-08-22T17:07:18.388Z,8.00
2022-08-22T17:10:18.254Z,8.02
2022-08-22T17:13:22.562Z,8.77
2022-08-22T17:16:03.589Z,7.57
2022-08-22T17:18:40.400Z,7.18
2022-08-22T17:21:32.662Z,6.55
2022-08-22T17:24:32.251Z,6.15
2022-08-22T17:27:03.990Z,8.82
2022-08-22T17:29:39.392Z,6.25
2022-08-22T17:32:25.115Z,11.80
2022-08-22T17:34:57.071Z,7.50
2022-08-22T17:37:57.078Z,4.90
2022-08-22T17:40:53.241Z,6.38
2022-08-22T17:43:28.445Z,5.65
2022-08-22T17:46:30.200Z,8.32
2022-08-22T17:49:14.560Z,4.95
2022-08-22T17:51:47.312Z,5.90
2022-08-22T17:54:33.672Z,5.18
2022-08-22T17:57:11.310Z,4.65
2022-08-22T17:59:50.478Z,6.85
2022-08-22T18:02:22.325Z,9.27
2022-08-22T18:05:19.996Z,8.15
2022-08-22T18:08:02.658Z,10.50
2022-08-22T18:10:51.058Z,9.48
2022-08-22T18:13:45.749Z,7.22
2022-08-22T18:16:24.584Z,6.63
2022-08-22T18:19:21.364Z,7.25
2022-08-22T18:21:59.811Z,5.35
2022-08-22T18:24:39.949Z,6.43
2022-08-22T18:27:30.021Z,7.00
2022-08-22T18:30:11.265Z,9.52
2022-08-22T18:32:43.232Z,5.75
2022-08-22T18:35:49.833Z,8.13
2022-08-22T18:38:34.940Z,5.18
2022-08-22T18:41:09.413Z,6.68
2022-08-22T18:43:38.464Z,8.73
2022-08-22T18:46:31.926Z,6.30
2022-08-22T18:49:19.322Z,5.75
2022-08-22T18:52:11.939Z,7.57
2022-08-22T18:54:49.461Z,5.32
2022-08-22T18:57:54.356Z,4.45
2022-08-22T19:00:42.443Z,7.78
2022-08-22T19:03:27.138Z,6.35
2022-08-22T19:06:12.605Z,16.42
2022-08-22T19:08:42.567Z,6.05
2022-08-22T19:11:16.763Z,4.40
2022-08-22T19:13:49.512Z,3.60
2022-08-22T19:16:43.706Z,6.05
2022-08-22T19:19:17.438Z,6.10
2022-08-22T19:22:26.117Z,5.25
2022-08-22T19:25:28.335Z,4.88
2022-08-22T19:28:10.323Z,5.22
2022-08-22T19:30:51.500Z,4.82
2022-08-22T19:33:29.256Z,5.68
2022-08-22T19:36:06.718Z,7.43
2022-08-22T19:38:52.064Z,5.88
2022-08-22T19:41:41.353Z,7.80
2022-08-22T19:44:19.422Z,7.13
2022-08-22T19:47:29.482Z,9.80
2022-08-22T19:50:00.567Z,4.55
2022-08-22T19:52:51.276Z,6.78
2022-08-22T19:55:30.077Z,5.63
2022-08-22T19:58:39.482Z,15.88
2022-08-22T20:01:42.710Z,8.82
2022-08-22T20:04:28.882Z,10.77
2022-08-22T20:07:16.972Z,10.80
2022-08-22T20:10:05.758Z,7.75
2022-08-22T20:12:51.986Z,5.88
2022-08-22T20:15:24.917Z,14.73
2022-08-22T20:20:58.517Z,6.47
2022-08-22T20:23:30.801Z,5.50
2022-08-22T20:25:58.710Z,6.47
2022-08-22T20:28:47.000Z,7.22
2022-08-22T20:31:27.274Z,7.47
2022-08-22T20:34:08.556Z,9.88
2022-08-22T20:36:36.500Z,13.50
2022-08-22T20:39:10.968Z,10.43
2022-08-22T20:41:43.996Z,7.40
2022-08-22T20:44:17.166Z,14.25
2022-08-22T20:46:58.288Z,9.82
2022-08-22T20:50:00.616Z,6.85
2022-08-22T20:52:42.786Z,9.52
2022-08-22T20:55:31.607Z,11.90
2022-08-22T20:58:35.915Z,8.30
2022-08-22T21:01:06.957Z,8.23
2022-08-22T21:03:47.527Z,10.02
2022-08-22T21:06:14.478Z,8.75
2022-08-22T21:08:42.772Z,12.18
2022-08-22T21:11:34.720Z,7.10
2022-08-22T21:14:22.041Z,10.63
2022-08-22T21:16:50.252Z,9.10
2022-08-22T21:19:24.541Z,8.10
2022-08-22T21:21:51.671Z,17.65
2022-08-22T21:24:18.871Z,16.10
2022-08-22T21:26:45.718Z,13.43
2022-08-22T21:29:12.598Z,10.98
2022-08-22T21:31:48.705Z,8.88
2022-08-22T21:34:30.169Z,5.90
2022-08-22T21:37:08.816Z,11.18
2022-08-22T21:39:42.180Z,11.63
2022-08-22T21:42:13.921Z,7.30
2022-08-22T21:44:43.378Z,5.82
2022-08-22T21:47:32.661Z,9.98
2022-08-22T21:50:19.019Z,8.30
2022-08-22T21:52:54.754Z,12.77
2022-08-22T21:55:34.881Z,6.65
2022-08-22T21:58:30.980Z,10.10
2022-08-22T22:01:33.789Z,8.13
2022-08-22T22:04:00.957Z,13.73
2022-08-22T22:06:27.935Z,8.63
2022-08-22T22:08:55.336Z,14.63
2022-08-22T22:11:22.452Z,9.02
2022-08-22T22:13:49.492Z,9.52
2022-08-22T22:16:24.807Z,8.00
2022-08-22T22:18:51.823Z,9.98
2022-08-22T22:21:19.072Z,12.65
2022-08-22T22:23:46.045Z,8.70
2022-08-22T22:26:13.844Z,8.77
2022-08-22T22:28:47.351Z,10.93
2022-08-22T22:31:16.460Z,9.57
2022-08-22T22:33:43.921Z,8.63
2022-08-22T22:36:25.426Z,9.55
2022-08-22T22:38:53.282Z,8.63
2022-08-22T22:41:25.477Z,10.93
2022-08-22T22:43:53.755Z,7.38
2022-08-22T22:46:21.354Z,10.68
2022-08-22T22:48:48.293Z,10.13
2022-08-22T22:51:15.324Z,8.02
2022-08-22T22:53:43.762Z,8.68
2022-08-22T22:56:16.077Z,9.32
2022-08-22T22:58:43.452Z,7.15
2022-08-22T23:01:15.542Z,10.68
2022-08-22T23:03:43.741Z,9.27
2022-08-22T23:06:13.456Z,7.95
2022-08-22T23:08:40.687Z,9.75
2022-08-22T23:11:21.405Z,12.90
2022-08-22T23:13:48.970Z,10.30
2022-08-22T23:16:19.166Z,12.05
2022-08-22T23:18:46.260Z,9.48
2022-08-22T23:21:31.312Z,7.45
2022-08-22T23:23:59.833Z,11.02
2022-08-22T23:26:27.556Z,8.85
2022-08-22T23:28:55.542Z,9.70
2022-08-22T23:31:35.064Z,8.93
2022-08-22T23:34:09.503Z,9.20
2022-08-22T23:36:38.292Z,11.77
2022-08-22T23:39:07.344Z,13.93
2022-08-22T23:41:34.781Z,14.63
2022-08-22T23:44:01.715Z,10.20
2022-08-22T23:46:28.794Z,8.77
2022-08-22T23:48:58.292Z,9.68
2022-08-22T23:51:26.649Z,9.85
2022-08-22T23:53:55.796Z,15.45
2022-08-22T23:56:34.783Z,17.65
2022-08-22T23:59:05.937Z,13.60
